createdAt,value
2023-04-12T00:00:58.612Z,100544.31
2023-04-12T00:03:25.505Z,100538.41
2023-04-12T00:05:54.825Z,100532.00
2023-04-12T00:08:32.957Z,100529.16
2023-04-12T00:11:00.912Z,100526.72
2023-04-12T00:13:28.097Z,100529.56
2023-04-12T00:15:55.075Z,100486.66
2023-04-12T00:18:25.375Z,100474.91
2023-04-12T00:20:52.967Z,100461.13
2023-04-12T00:23:20.045Z,100447.91
2023-04-12T00:25:47.048Z,100448.59
2023-04-12T00:28:15.875Z,100443.59
2023-04-12T00:30:42.935Z,100429.47
2023-04-12T00:33:09.678Z,100427.56
2023-04-12T00:35:36.534Z,100418.16
2023-04-12T00:38:03.841Z,100422.09
2023-04-12T00:40:30.807Z,100415.41
2023-04-12T00:42:57.801Z,100405.63
2023-04-12T00:45:24.549Z,100408.13
2023-04-12T00:47:51.556Z,100398.09
2023-04-12T00:50:18.523Z,100404.06
2023-04-12T00:52:45.248Z,100391.38
2023-04-12T00:55:12.018Z,100385.19
2023-04-12T00:57:40.486Z,100370.56
2023-04-12T01:00:12.840Z,100370.66
2023-04-12T01:02:48.394Z,100369.53
2023-04-12T01:05:22.151Z,100335.13
2023-04-12T01:08:17.429Z,100326.78
2023-04-12T01:10:47.049Z,100307.94
2023-04-12T01:13:21.784Z,100293.84
2023-04-12T01:16:00.630Z,100289.44
2023-04-12T01:18:30.574Z,100284.13
2023-04-12T01:21:10.679Z,100276.50
2023-04-12T01:23:52.860Z,100270.56
2023-04-12T01:26:41.786Z,100258.81
2023-04-12T01:29:11.439Z,100252.41
2023-04-12T01:31:44.229Z,100240.31
2023-04-12T01:34:12.696Z,100237.34
2023-04-12T01:36:41.224Z,100230.13
2023-04-12T01:39:08.201Z,100228.00
2023-04-12T01:41:39.361Z,100209.19
2023-04-12T01:44:06.329Z,100206.06
2023-04-12T01:46:34.964Z,100196.88
2023-04-12T01:49:01.691Z,100178.88
2023-04-12T01:51:31.748Z,100177.38
2023-04-12T01:54:03.342Z,100168.97
2023-04-12T01:56:34.612Z,100160.03
2023-04-12T01:59:04.179Z,100150.91
2023-04-12T02:01:31.412Z,100157.91
2023-04-12T02:04:02.673Z,100134.75
2023-04-12T02:06:30.213Z,100135.16
2023-04-12T02:09:06.166Z,100131.84
2023-04-12T02:11:32.871Z,100118.63
2023-04-12T02:13:59.946Z,100111.59
2023-04-12T02:16:29.464Z,100107.28
2023-04-12T02:18:59.474Z,100093.78
2023-04-12T02:21:28.039Z,100080.84
2023-04-12T02:23:55.229Z,100079.13
2023-04-12T02:26:23.476Z,100074.88
2023-04-12T02:28:50.378Z,100066.81
2023-04-12T02:31:17.492Z,100059.78
2023-04-12T02:33:44.327Z,100054.06
2023-04-12T02:36:11.568Z,100048.19
2023-04-12T02:38:38.404Z,100039.25
2023-04-12T02:41:05.609Z,100039.59
2023-04-12T02:43:33.360Z,100023.47
2023-04-12T02:46:00.714Z,100012.81
2023-04-12T02:48:27.382Z,99997.41
2023-04-12T02:50:54.081Z,99993.97
2023-04-12T02:53:21.786Z,99982.56
2023-04-12T02:55:48.445Z,99975.88
2023-04-12T02:58:15.106Z,99973.56
2023-04-12T03:00:43.958Z,99976.44
2023-04-12T03:03:11.143Z,99971.13
2023-04-12T03:05:38.149Z,99958.44
2023-04-12T03:08:05.025Z,99956.16
2023-04-12T03:10:31.709Z,99958.56
2023-04-12T03:12:58.424Z,99946.69
2023-04-12T03:15:25.265Z,99937.66
2023-04-12T03:17:52.070Z,99934.84
2023-04-12T03:20:20.317Z,99925.19
2023-04-12T03:22:47.783Z,99918.47
2023-04-12T03:25:14.604Z,99919.72
2023-04-12T03:27:41.308Z,99909.16
2023-04-12T03:30:08.895Z,99910.13
2023-04-12T03:32:35.670Z,99894.56
2023-04-12T03:35:03.382Z,99895.06
2023-04-12T03:37:30.414Z,99889.41
2023-04-12T03:39:57.135Z,99892.00
2023-04-12T03:42:33.080Z,99875.78
2023-04-12T03:45:04.360Z,99872.91
2023-04-12T03:47:31.750Z,99876.34
2023-04-12T03:50:11.537Z,99869.25
2023-04-12T03:52:39.329Z,99866.69
2023-04-12T03:55:07.913Z,99856.03
2023-04-12T03:57:35.315Z,99844.00
2023-04-12T04:00:02.544Z,99838.16
2023-04-12T04:02:29.375Z,99832.31
2023-04-12T04:04:56.385Z,99829.81
2023-04-12T04:07:23.286Z,99835.56
2023-04-12T04:09:53.794Z,99832.13
2023-04-12T04:12:20.486Z,99824.16
2023-04-12T04:14:47.134Z,99831.16
2023-04-12T04:17:13.798Z,99824.53
2023-04-12T04:19:41.819Z,99831.16
2023-04-12T04:22:10.121Z,99822.63
2023-04-12T04:24:39.157Z,99821.88
2023-04-12T04:27:06.532Z,99814.06
2023-04-12T04:29:33.887Z,99817.63
2023-04-12T04:32:00.855Z,99821.47
2023-04-12T04:34:27.556Z,99814.84
2023-04-12T04:36:54.216Z,99823.19
2023-04-12T04:39:20.907Z,99822.91
2023-04-12T04:41:54.527Z,99816.47
2023-04-12T04:44:21.896Z,99811.56
2023-04-12T04:46:49.190Z,99815.69
2023-04-12T04:49:16.308Z,99825.19
2023-04-12T04:51:45.050Z,99825.38
2023-04-12T04:54:11.749Z,99827.69
2023-04-12T04:56:38.523Z,99829.78
2023-04-12T04:59:05.206Z,99830.25
2023-04-12T05:01:32.196Z,99828.03
2023-04-12T05:03:59.143Z,99850.69
2023-04-12T05:06:26.033Z,99843.00
2023-04-12T05:08:53.026Z,99852.03
2023-04-12T05:11:20.537Z,99857.22
2023-04-12T05:13:47.191Z,99853.06
2023-04-12T05:16:13.874Z,99865.81
2023-04-12T05:18:40.760Z,99878.31
2023-04-12T05:21:07.567Z,99889.91
2023-04-12T05:23:41.805Z,99898.47
2023-04-12T05:26:08.584Z,99900.59
2023-04-12T05:28:35.333Z,99915.94
2023-04-12T05:31:02.287Z,99919.81
2023-04-12T05:33:30.242Z,99927.00
2023-04-12T05:35:57.844Z,99940.59
2023-04-12T05:38:24.614Z,99954.06
2023-04-12T05:40:51.562Z,99962.16
2023-04-12T05:43:18.354Z,99974.16
2023-04-12T05:45:45.019Z,99974.22
2023-04-12T05:48:11.825Z,99982.09
2023-04-12T05:50:38.494Z,99992.97
2023-04-12T05:53:05.252Z,100004.38
2023-04-12T05:55:31.957Z,100010.22
2023-04-12T05:57:58.773Z,100028.88
2023-04-12T06:00:26.376Z,100064.28
2023-04-12T06:02:53.396Z,100069.81
2023-04-12T06:05:20.687Z,100070.09
2023-04-12T06:07:48.263Z,100071.81
2023-04-12T06:10:17.031Z,100088.44
2023-04-12T06:12:43.928Z,100099.16
2023-04-12T06:15:10.985Z,100095.66
2023-04-12T06:17:38.238Z,100110.09
2023-04-12T06:20:08.382Z,100127.78
2023-04-12T06:22:36.037Z,100158.41
2023-04-12T06:25:03.815Z,100192.53
2023-04-12T06:27:30.973Z,100227.06
2023-04-12T06:29:58.224Z,100317.38
2023-04-12T06:32:25.601Z,100353.03
2023-04-12T06:34:52.659Z,100378.16
2023-04-12T06:37:19.408Z,100393.88
2023-04-12T06:39:46.180Z,100410.97
2023-04-12T06:42:14.874Z,100436.03
2023-04-12T06:44:41.836Z,100439.28
2023-04-12T06:47:08.704Z,100448.72
2023-04-12T06:49:35.684Z,100458.19
2023-04-12T06:52:02.338Z,100455.19
2023-04-12T06:54:29.072Z,100457.75
2023-04-12T06:56:58.710Z,100460.38
2023-04-12T06:59:25.611Z,100459.41
2023-04-12T07:01:52.380Z,100456.56
2023-04-12T07:04:19.119Z,100467.94
2023-04-12T07:06:46.204Z,100460.28
2023-04-12T07:09:12.926Z,100459.84
2023-04-12T07:11:39.631Z,100452.06
2023-04-12T07:14:06.334Z,100457.69
2023-04-12T07:16:33.977Z,100454.03
2023-04-12T07:19:00.891Z,100448.03
2023-04-12T07:21:28.234Z,100443.56
2023-04-12T07:23:56.053Z,100436.03
2023-04-12T07:26:23.301Z,100424.31
2023-04-12T07:28:50.296Z,100422.50
2023-04-12T07:31:16.930Z,100431.63
2023-04-12T07:33:44.441Z,100409.69
2023-04-12T07:36:12.039Z,100417.59
2023-04-12T07:38:38.939Z,100405.53
2023-04-12T07:41:06.071Z,100388.97
2023-04-12T07:43:32.974Z,100402.34
2023-04-12T07:45:59.913Z,100396.41
2023-04-12T07:48:26.656Z,100397.41
2023-04-12T07:50:53.339Z,100391.66
2023-04-12T07:53:24.500Z,100389.47
2023-04-12T07:55:51.479Z,100379.88
2023-04-12T07:58:19.102Z,100366.19
2023-04-12T08:00:46.851Z,100354.09
2023-04-12T08:03:17.845Z,100353.44
2023-04-12T08:05:44.910Z,100346.19
2023-04-12T08:08:12.169Z,100347.50
2023-04-12T08:10:39.906Z,100328.41
2023-04-12T08:13:07.364Z,100330.84
2023-04-12T08:15:34.705Z,100327.41
2023-04-12T08:18:02.501Z,100316.38
2023-04-12T08:20:29.607Z,100317.91
2023-04-12T08:22:56.497Z,100314.31
2023-04-12T08:25:23.417Z,100310.13
2023-04-12T08:27:51.336Z,100310.84
2023-04-12T08:30:18.668Z,100295.06
2023-04-12T08:32:45.798Z,100303.22
2023-04-12T08:35:15.031Z,100296.28
2023-04-12T08:37:42.257Z,100301.22
2023-04-12T08:40:09.674Z,100287.50
2023-04-12T08:42:38.040Z,100272.22
2023-04-12T08:45:09.433Z,100273.94
2023-04-12T08:47:41.362Z,100261.72
2023-04-12T08:50:10.024Z,100257.16
2023-04-12T08:52:38.104Z,100255.06
2023-04-12T08:55:09.606Z,100249.94
2023-04-12T08:57:37.046Z,100244.66
2023-04-12T09:00:14.672Z,100230.34
2023-04-12T09:02:46.309Z,100223.53
2023-04-12T09:05:14.487Z,100225.09
2023-04-12T09:07:42.118Z,100227.88
2023-04-12T09:10:08.974Z,100223.56
2023-04-12T09:12:35.674Z,100209.34
2023-04-12T09:15:12.996Z,100204.91
2023-04-12T09:17:41.398Z,100202.47
2023-04-12T09:20:17.361Z,100204.47
2023-04-12T09:22:46.715Z,100200.94
2023-04-12T09:25:14.655Z,100185.22
2023-04-12T09:27:52.941Z,100178.53
2023-04-12T09:30:21.029Z,100191.53
2023-04-12T09:32:51.177Z,100195.72
2023-04-12T09:35:18.844Z,100197.06
2023-04-12T09:37:45.733Z,100185.13
2023-04-12T09:40:12.682Z,100172.16
2023-04-12T09:42:54.761Z,100165.97
2023-04-12T09:45:26.434Z,100142.53
2023-04-12T09:47:54.781Z,100139.78
2023-04-12T09:50:27.311Z,100124.41
2023-04-12T09:52:57.895Z,100136.31
2023-04-12T09:55:26.789Z,100134.41
2023-04-12T09:57:55.604Z,100144.53
2023-04-12T10:00:25.432Z,100133.06
2023-04-12T10:02:55.365Z,100147.75
2023-04-12T10:05:26.333Z,100134.94
2023-04-12T10:07:53.670Z,100145.69
2023-04-12T10:10:21.204Z,100137.47
2023-04-12T10:12:48.878Z,100122.69
2023-04-12T10:15:21.224Z,100133.75
2023-04-12T10:17:55.375Z,100124.09
2023-04-12T10:20:25.001Z,100100.75
2023-04-12T10:22:54.183Z,100093.88
2023-04-12T10:25:23.243Z,100084.66
2023-04-12T10:27:50.284Z,100062.47
2023-04-12T10:30:27.577Z,100073.19
2023-04-12T10:33:03.747Z,100066.63
2023-04-12T10:35:48.964Z,100044.13
2023-04-12T10:38:16.499Z,100042.19
2023-04-12T10:41:15.557Z,100035.13
2023-04-12T10:43:44.519Z,100031.16
2023-04-12T10:46:39.646Z,100040.44
2023-04-12T10:49:13.972Z,100032.09
2023-04-12T10:52:03.473Z,100033.66
2023-04-12T10:54:36.808Z,100027.06
2023-04-12T10:57:04.553Z,100035.13
2023-04-12T10:59:57.526Z,100048.06
2023-04-12T11:02:24.499Z,100054.94
2023-04-12T11:05:09.495Z,100060.97
2023-04-12T11:07:41.926Z,100078.69
2023-04-12T11:10:16.715Z,100079.16
2023-04-12T11:12:50.706Z,100100.00
2023-04-12T11:15:18.118Z,100142.88
2023-04-12T11:17:54.447Z,100128.75
2023-04-12T11:20:21.316Z,100151.78
2023-04-12T11:22:50.009Z,100152.94
2023-04-12T11:25:20.493Z,100153.06
2023-04-12T11:27:51.492Z,100156.78
2023-04-12T11:30:19.717Z,100112.66
2023-04-12T11:32:47.291Z,100122.69
2023-04-12T11:35:17.360Z,100117.84
2023-04-12T11:37:44.532Z,100116.19
2023-04-12T11:40:11.572Z,100122.28
2023-04-12T11:42:39.715Z,100114.13
2023-04-12T11:45:14.344Z,100127.44
2023-04-12T11:47:44.434Z,100122.63
2023-04-12T11:50:11.773Z,100126.59
2023-04-12T11:52:38.808Z,100122.69
2023-04-12T11:55:11.266Z,100120.38
2023-04-12T11:57:39.180Z,100125.81
2023-04-12T12:00:07.057Z,100108.06
2023-04-12T12:02:41.081Z,100105.59
2023-04-12T12:05:13.479Z,100108.31
2023-04-12T12:07:40.610Z,100114.78
2023-04-12T12:10:08.308Z,100118.28
2023-04-12T12:12:35.232Z,100127.31
2023-04-12T12:15:02.402Z,100129.09
2023-04-12T12:17:29.414Z,100126.53
2023-04-12T12:19:59.463Z,100128.66
2023-04-12T12:22:26.265Z,100133.00
2023-04-12T12:24:58.354Z,100132.00
2023-04-12T12:27:34.133Z,100143.22
2023-04-12T12:30:02.794Z,100142.19
2023-04-12T12:32:39.055Z,100144.28
2023-04-12T12:35:10.670Z,100142.56
2023-04-12T12:37:37.397Z,100142.69
2023-04-12T12:40:11.081Z,100144.53
2023-04-12T12:42:44.790Z,100146.81
2023-04-12T12:45:12.712Z,100142.16
2023-04-12T12:48:06.061Z,100132.16
2023-04-12T12:50:34.853Z,100129.31
2023-04-12T12:53:02.834Z,100132.66
2023-04-12T12:55:31.209Z,100128.84
2023-04-12T13:00:29.384Z,100117.13
2023-04-12T13:02:56.635Z,100115.16
2023-04-12T13:05:23.767Z,100111.19
2023-04-12T13:07:50.535Z,100102.28
2023-04-12T13:10:17.435Z,100099.78
2023-04-12T13:12:44.543Z,100085.59
2023-04-12T13:15:22.300Z,100087.81
2023-04-12T13:17:54.179Z,100075.97
2023-04-12T13:20:21.520Z,100064.03
2023-04-12T13:22:48.851Z,100056.75
2023-04-12T13:25:15.666Z,100044.81
2023-04-12T13:27:42.329Z,100028.72
2023-04-12T13:30:09.483Z,100029.09
2023-04-12T13:32:36.201Z,100026.28
2023-04-12T13:35:03.641Z,100008.91
2023-04-12T13:37:31.024Z,100007.19
2023-04-12T13:39:57.675Z,99997.22
2023-04-12T13:42:24.435Z,99986.00
2023-04-12T13:44:51.170Z,99985.66
2023-04-12T13:47:18.017Z,99977.53
2023-04-12T13:49:45.281Z,99970.03
2023-04-12T13:52:12.692Z,99962.53
2023-04-12T13:54:40.637Z,99960.06
2023-04-12T13:57:08.123Z,99950.22
2023-04-12T13:59:35.313Z,99943.34
2023-04-12T14:02:02.655Z,99940.25
2023-04-12T14:04:31.466Z,99938.53
2023-04-12T14:06:58.984Z,99931.03
2023-04-12T14:09:27.777Z,99925.22
2023-04-12T14:11:56.462Z,99919.16
2023-04-12T14:14:26.155Z,99913.50
2023-04-12T14:16:57.396Z,99891.91
2023-04-12T14:19:25.175Z,99892.84
2023-04-12T14:21:52.185Z,99885.84
2023-04-12T14:24:20.510Z,99877.00
2023-04-12T14:26:48.523Z,99870.50
2023-04-12T14:29:15.501Z,99863.47
2023-04-12T14:31:42.266Z,99858.03
2023-04-12T14:34:09.416Z,99853.88
2023-04-12T14:36:36.668Z,99846.97
2023-04-12T14:39:05.486Z,99851.41
2023-04-12T14:41:33.676Z,99838.84
2023-04-12T14:44:01.156Z,99825.94
2023-04-12T14:46:28.493Z,99819.78
2023-04-12T14:48:57.250Z,99810.19
2023-04-12T14:51:24.337Z,99804.41
2023-04-12T14:53:51.465Z,99792.97
2023-04-12T14:56:24.323Z,99786.94
2023-04-12T14:58:54.074Z,99777.09
2023-04-12T15:01:24.915Z,99768.97
2023-04-12T15:03:55.156Z,99772.66
2023-04-12T15:06:26.135Z,99764.78
2023-04-12T15:08:57.377Z,99752.00
2023-04-12T15:11:27.079Z,99755.81
2023-04-12T15:13:55.122Z,99746.28
2023-04-12T15:16:22.332Z,99734.69
2023-04-12T15:18:51.182Z,99727.03
2023-04-12T15:21:18.196Z,99733.72
2023-04-12T15:23:45.312Z,99724.59
2023-04-12T15:26:14.047Z,99721.16
2023-04-12T15:28:40.829Z,99712.19
2023-04-12T15:31:09.297Z,99715.66
2023-04-12T15:33:37.354Z,99714.69
2023-04-12T15:36:05.423Z,99707.38
2023-04-12T15:38:32.673Z,99698.44
2023-04-12T15:41:01.270Z,99689.41
2023-04-12T15:43:28.370Z,99682.72
2023-04-12T15:45:55.310Z,99676.00
2023-04-12T15:48:23.211Z,99671.44
2023-04-12T15:50:51.826Z,99671.84
2023-04-12T15:53:24.218Z,99665.44
2023-04-12T15:55:57.637Z,99663.56
2023-04-12T15:58:25.359Z,99666.72
2023-04-12T16:00:54.150Z,99654.66
2023-04-12T16:03:23.404Z,99645.78
2023-04-12T16:05:53.514Z,99631.72
2023-04-12T16:08:21.138Z,99628.09
2023-04-12T16:10:48.724Z,99627.88
2023-04-12T16:13:15.679Z,99621.31
2023-04-12T16:15:42.590Z,99619.88
2023-04-12T16:18:09.573Z,99613.09
2023-04-12T16:20:37.477Z,99589.97
2023-04-12T16:23:05.122Z,99584.81
2023-04-12T16:25:32.238Z,99548.84
2023-04-12T16:28:02.390Z,99535.59
2023-04-12T16:30:31.140Z,99533.94
2023-04-12T16:32:58.332Z,99526.22
2023-04-12T16:35:25.225Z,99517.09
2023-04-12T16:37:52.315Z,99493.41
2023-04-12T16:40:19.126Z,99488.97
2023-04-12T16:42:45.928Z,99484.94
2023-04-12T16:45:16.313Z,99483.38
2023-04-12T16:47:46.893Z,99478.03
2023-04-12T16:50:14.144Z,99472.72
2023-04-12T16:52:41.651Z,99468.22
2023-04-12T16:55:11.434Z,99457.03
2023-04-12T16:57:40.122Z,99441.16
2023-04-12T17:00:22.208Z,99439.69
2023-04-12T17:02:53.783Z,99422.94
2023-04-12T17:05:21.944Z,99421.44
2023-04-12T17:07:51.344Z,99419.47
2023-04-12T17:10:19.547Z,99411.81
2023-04-12T17:12:47.785Z,99324.25
2023-04-12T17:15:16.341Z,99311.38
2023-04-12T17:17:47.662Z,99292.88
2023-04-12T17:20:22.156Z,99281.97
2023-04-12T17:22:49.915Z,99273.72
2023-04-12T17:25:18.906Z,99261.47
2023-04-12T17:27:47.733Z,99260.31
2023-04-12T17:30:17.758Z,99255.72
2023-04-12T17:32:48.303Z,99242.63
2023-04-12T17:35:17.846Z,99239.09
2023-04-12T17:37:45.201Z,99223.59
2023-04-12T17:40:13.058Z,99222.19
2023-04-12T17:42:41.912Z,99209.06
2023-04-12T17:45:12.396Z,99204.75
2023-04-12T17:47:40.164Z,99203.75
2023-04-12T17:50:09.162Z,99171.03
2023-04-12T17:52:36.140Z,99171.16
2023-04-12T17:55:07.611Z,99159.78
2023-04-12T17:57:34.610Z,99161.78
2023-04-12T18:00:01.361Z,99142.41
2023-04-12T18:02:28.407Z,99143.97
2023-04-12T18:04:55.364Z,99128.28
2023-04-12T18:07:22.960Z,99126.44
2023-04-12T18:09:51.268Z,99120.16
2023-04-12T18:12:18.258Z,99059.81
2023-04-12T18:14:45.389Z,99015.06
2023-04-12T18:17:12.188Z,99011.50
2023-04-12T18:19:38.905Z,98993.28
2023-04-12T18:22:06.205Z,98986.16
2023-04-12T18:24:33.069Z,98976.94
2023-04-12T18:27:00.195Z,98962.81
2023-04-12T18:29:27.208Z,98955.13
2023-04-12T18:31:53.997Z,98944.31
2023-04-12T18:34:21.030Z,98931.66
2023-04-12T18:36:47.718Z,98928.22
2023-04-12T18:39:14.549Z,98926.94
2023-04-12T18:41:41.341Z,98913.41
2023-04-12T18:44:09.227Z,98906.00
2023-04-12T18:46:35.990Z,98894.75
2023-04-12T18:49:04.540Z,98884.34
2023-04-12T18:51:32.919Z,98890.59
2023-04-12T18:54:00.462Z,98871.41
2023-04-12T18:56:27.941Z,98861.41
2023-04-12T18:58:56.305Z,98846.88
2023-04-12T19:01:24.310Z,98847.06
2023-04-12T19:03:51.362Z,98839.19
2023-04-12T19:06:18.442Z,98823.84
2023-04-12T19:08:45.254Z,98827.56
2023-04-12T19:11:12.297Z,98810.59
2023-04-12T19:13:39.135Z,98814.31
2023-04-12T19:16:09.683Z,98808.31
2023-04-12T19:18:36.519Z,98785.25
2023-04-12T19:21:04.242Z,98774.13
2023-04-12T19:23:31.663Z,98763.03
2023-04-12T19:26:00.578Z,98754.81
2023-04-12T19:28:28.066Z,98739.97
2023-04-12T19:30:56.864Z,98730.97
2023-04-12T19:33:24.727Z,98731.03
2023-04-12T19:35:56.316Z,98714.91
2023-04-12T19:38:23.147Z,98693.09
2023-04-12T19:40:54.464Z,98680.56
2023-04-12T19:43:21.494Z,98673.75
2023-04-12T19:45:48.668Z,98659.06
2023-04-12T19:48:17.142Z,98648.97
2023-04-12T19:50:47.907Z,98640.84
2023-04-12T19:53:18.162Z,98635.75
2023-04-12T19:55:45.312Z,98634.75
2023-04-12T19:58:13.619Z,98621.22
2023-04-12T20:00:41.456Z,98624.38
2023-04-12T20:03:09.361Z,98604.69
2023-04-12T20:05:36.280Z,98598.56
2023-04-12T20:08:03.167Z,98592.06
2023-04-12T20:10:30.014Z,98583.03
2023-04-12T20:12:56.717Z,98578.72
2023-04-12T20:15:23.459Z,98570.97
2023-04-12T20:17:52.081Z,98576.75
2023-04-12T20:20:19.055Z,98562.16
2023-04-12T20:22:52.163Z,98560.94
2023-04-12T20:25:20.634Z,98556.81
2023-04-12T20:27:52.050Z,98551.63
2023-04-12T20:30:20.478Z,98545.06
2023-04-12T20:32:49.147Z,98557.09
2023-04-12T20:35:15.930Z,98549.72
2023-04-12T20:37:43.286Z,98545.63
2023-04-12T20:40:10.509Z,98552.41
2023-04-12T20:42:37.217Z,98546.34
2023-04-12T20:45:04.206Z,98550.59
2023-04-12T20:47:31.173Z,98549.94
2023-04-12T20:49:57.914Z,98543.44
2023-04-12T20:52:25.456Z,98535.50
2023-04-12T20:54:53.495Z,98522.38
2023-04-12T20:57:20.514Z,98511.31
2023-04-12T20:59:47.336Z,98505.06
2023-04-12T21:02:16.787Z,98503.97
2023-04-12T21:04:45.280Z,98505.97
2023-04-12T21:07:12.658Z,98499.00
2023-04-12T21:09:39.349Z,98489.97
2023-04-12T21:12:08.378Z,98488.66
2023-04-12T21:14:37.700Z,98485.41
2023-04-12T21:17:05.037Z,98482.97
2023-04-12T21:19:32.231Z,98478.03
2023-04-12T21:21:59.377Z,98467.22
2023-04-12T21:24:26.101Z,98475.81
2023-04-12T21:26:56.698Z,98476.50
2023-04-12T21:29:23.572Z,98489.47
2023-04-12T21:31:50.485Z,98477.25
2023-04-12T21:34:18.243Z,98475.28
2023-04-12T21:36:45.394Z,98480.53
2023-04-12T21:39:12.417Z,98470.75
2023-04-12T21:41:39.216Z,98467.88
2023-04-12T21:44:05.954Z,98472.56
2023-04-12T21:46:32.609Z,98456.69
2023-04-12T21:48:59.470Z,98443.06
2023-04-12T21:51:26.720Z,98428.81
2023-04-12T21:53:53.412Z,98429.88
2023-04-12T21:56:20.287Z,98439.25
2023-04-12T21:58:46.937Z,98457.91
2023-04-12T22:01:14.241Z,98452.81
2023-04-12T22:03:43.885Z,98453.09
2023-04-12T22:06:14.131Z,98457.91
2023-04-12T22:08:44.023Z,98459.06
2023-04-12T22:11:11.857Z,98463.31
2023-04-12T22:13:41.776Z,98504.47
2023-04-12T22:16:15.863Z,98495.94
2023-04-12T22:18:45.686Z,98490.13
2023-04-12T22:21:12.961Z,98499.66
2023-04-12T22:23:40.691Z,98473.09
2023-04-12T22:26:08.970Z,98464.59
2023-04-12T22:28:38.072Z,98462.47
2023-04-12T22:31:08.636Z,98459.47
2023-04-12T22:33:36.891Z,98467.84
2023-04-12T22:36:06.134Z,98464.16
2023-04-12T22:38:34.919Z,98467.84
2023-04-12T22:41:06.296Z,98469.28
2023-04-12T22:43:41.685Z,98473.81
2023-04-12T22:46:18.662Z,98467.84
2023-04-12T22:48:49.234Z,98470.56
2023-04-12T22:51:16.624Z,98475.22
2023-04-12T22:53:43.644Z,98478.63
2023-04-12T22:56:11.300Z,98471.53
2023-04-12T22:58:40.105Z,98481.34
2023-04-12T23:01:07.434Z,98478.94
2023-04-12T23:03:34.334Z,98470.69
2023-04-12T23:06:01.027Z,98458.94
2023-04-12T23:08:29.077Z,98451.53
2023-04-12T23:11:02.248Z,98453.06
2023-04-12T23:13:35.547Z,98451.06
2023-04-12T23:16:03.636Z,98451.22
2023-04-12T23:18:30.549Z,98458.78
2023-04-12T23:20:57.210Z,98453.38
2023-04-12T23:23:24.724Z,98441.47
2023-04-12T23:25:52.352Z,98445.44
2023-04-12T23:28:19.650Z,98280.81
2023-04-12T23:30:51.056Z,98275.31
2023-04-12T23:33:20.308Z,98274.34
2023-04-12T23:35:55.851Z,98270.94
2023-04-12T23:38:24.506Z,98266.13
2023-04-12T23:40:54.189Z,98251.03
2023-04-12T23:43:22.729Z,98247.34
2023-04-12T23:45:49.480Z,98259.16
2023-04-12T23:48:19.297Z,98250.50
2023-04-12T23:50:46.520Z,98244.00
2023-04-12T23:53:13.314Z,98243.72
2023-04-12T23:55:42.450Z,98235.91
2023-04-12T23:58:09.708Z,98235.50
